Time;durP1;ratioP1;P1;durP2;ratioP2;P2;SDS_P1;SDS_P2;PMS_P1;PMS_P2;Temp;Humidity;BMP_temperature;BMP_pressure;BME280_temperature;BME280_humidity;BME280_pressure;Samples;Min_cycle;Max_cycle;Signal;HPM_P1;HPM_P2
2023/09/15 00:01:49;;;;;;;3.87;1.80;;;;;;;12.12;86.17;100842.88;4216235;28;20238;-67
2023/09/15 00:04:16;;;;;;;4.00;2.00;;;;;;;12.07;86.70;100842.47;4196478;28;20229;-68
2023/09/15 00:06:46;;;;;;;4.60;2.13;;;;;;;12.11;86.27;100848.47;4202098;28;20244;-66
2023/09/15 00:09:15;;;;;;;6.17;1.80;;;;;;;12.01;86.48;100854.75;4205564;28;22809;-68
2023/09/15 00:11:42;;;;;;;4.90;1.90;;;;;;;11.92;86.65;100847.47;4213375;28;20244;-66
2023/09/15 00:14:14;;;;;;;4.40;2.03;;;;;;;11.99;86.47;100858.63;4206600;28;25796;-67
2023/09/15 00:16:42;;;;;;;5.77;2.10;;;;;;;11.88;86.85;100860.47;4198543;28;20228;-65
2023/09/15 00:19:13;;;;;;;5.17;2.00;;;;;;;11.85;86.86;100871.63;4211620;28;20477;-70
2023/09/15 00:21:42;;;;;;;4.43;1.97;;;;;;;11.77;87.39;100867.91;4203558;28;22090;-69
2023/09/15 00:24:09;;;;;;;5.50;2.30;;;;;;;11.79;87.26;100864.03;4198933;28;20243;-70
2023/09/15 00:26:36;;;;;;;5.17;1.60;;;;;;;11.74;87.35;100869.03;4196857;28;20604;-67
2023/09/15 00:29:04;;;;;;;4.67;1.67;;;;;;;11.73;87.17;100868.19;4203248;28;20460;-67
2023/09/15 00:31:31;;;;;;;8.63;2.07;;;;;;;11.79;86.79;100868.63;4199033;28;20247;-67
2023/09/15 00:33:57;;;;;;;4.83;1.83;;;;;;;11.71;87.02;100862.06;4209393;28;20244;-68
2023/09/15 00:36:24;;;;;;;5.20;1.80;;;;;;;11.76;86.95;100872.47;4202199;28;22484;-69
2023/09/15 00:38:50;;;;;;;4.50;1.90;;;;;;;11.64;87.20;100874.47;4198133;28;20310;-67
2023/09/15 00:41:17;;;;;;;5.03;1.70;;;;;;;11.57;87.63;100874.19;4202708;28;20286;-70
2023/09/15 00:43:44;;;;;;;3.57;1.60;;;;;;;11.63;87.50;100877.34;4200792;28;20259;-68
2023/09/15 00:46:11;;;;;;;7.83;2.07;;;;;;;11.66;87.29;100877.91;4195606;28;20242;-70
2023/09/15 00:48:39;;;;;;;5.97;1.90;;;;;;;11.58;87.31;100875.91;4196120;28;22133;-66
2023/09/15 00:51:07;;;;;;;4.73;2.20;;;;;;;11.57;87.60;100876.06;4202405;28;25277;-67
2023/09/15 00:53:37;;;;;;;6.37;2.27;;;;;;;11.56;87.45;100882.47;4200362;28;20240;-68
2023/09/15 00:56:05;;;;;;;4.67;2.23;;;;;;;11.56;87.63;100883.31;4196461;28;20331;-68
2023/09/15 00:58:32;;;;;;;4.97;2.30;;;;;;;11.51;87.75;100890.19;4205054;28;21663;-68
2023/09/15 01:01:00;;;;;;;7.67;2.13;;;;;;;11.53;87.76;100886.34;4203312;28;21428;-66
2023/09/15 01:03:30;;;;;;;6.20;2.43;;;;;;;11.45;87.69;100893.44;4194332;28;20634;-68
2023/09/15 01:05:57;;;;;;;7.97;2.30;;;;;;;11.50;87.58;100896.59;4188778;28;22828;-69
2023/09/15 01:08:24;;;;;;;6.03;1.77;;;;;;;11.49;87.47;100892.19;4207273;28;21199;-69
2023/09/15 01:10:50;;;;;;;9.37;2.17;;;;;;;11.39;87.86;100892.19;4198715;28;20232;-71
2023/09/15 01:13:17;;;;;;;6.03;2.17;;;;;;;11.27;88.10;100894.16;4187950;28;21047;-68
2023/09/15 01:16:18;;;;;;;5.03;2.17;;;;;;;11.27;88.53;100894.16;4201258;28;20297;-68
2023/09/15 01:18:56;;;;;;;4.37;2.10;;;;;;;11.26;88.35;100898.72;4217180;28;20299;-66
2023/09/15 01:21:55;;;;;;;6.47;2.10;;;;;;;11.35;88.03;100905.16;4199092;28;20238;-66
2023/09/15 01:24:41;;;;;;;4.10;1.87;;;;;;;11.30;88.14;100906.56;4208521;28;20237;-66
2023/09/15 01:27:19;;;;;;;9.33;2.20;;;;;;;11.22;88.05;100904.56;4199865;28;20232;-69
2023/09/15 01:29:54;;;;;;;5.00;2.07;;;;;;;11.22;88.24;100908.13;4197159;28;20273;-67
2023/09/15 01:32:22;;;;;;;4.33;2.20;;;;;;;11.20;88.33;100906.56;4201473;28;20300;-68
2023/09/15 01:34:51;;;;;;;4.20;2.10;;;;;;;11.18;88.52;100917.53;4199489;28;20236;-67
2023/09/15 01:37:18;;;;;;;3.00;1.53;;;;;;;11.24;88.27;100900.72;4199106;28;20228;-67
2023/09/15 01:39:45;;;;;;;4.50;2.10;;;;;;;11.24;87.94;100913.41;4195668;28;20260;-66
2023/09/15 01:42:12;;;;;;;5.73;2.10;;;;;;;11.22;87.84;100913.56;4196284;28;20255;-70
2023/09/15 01:44:38;;;;;;;8.73;2.17;;;;;;;11.18;87.79;100913.97;4197113;28;20233;-67
2023/09/15 01:47:08;;;;;;;6.50;2.00;;;;;;;11.15;88.15;100922.38;4217808;28;20233;-67
2023/09/15 01:49:37;;;;;;;8.40;2.00;;;;;;;11.09;88.36;100919.22;4207205;28;20675;-67
2023/09/15 01:52:04;;;;;;;3.73;1.70;;;;;;;11.05;88.55;100925.06;4211776;28;20296;-68
2023/09/15 01:54:31;;;;;;;5.37;2.40;;;;;;;10.99;88.66;100921.03;4203487;28;20260;-70
2023/09/15 01:56:58;;;;;;;7.70;2.43;;;;;;;11.08;87.85;100922.09;4204157;28;20233;-69
2023/09/15 01:59:25;;;;;;;5.03;2.30;;;;;;;10.86;88.92;100918.59;4212127;28;21781;-69
2023/09/15 02:01:51;;;;;;;6.30;2.00;;;;;;;10.86;88.60;100920.44;4195844;28;20316;-69
2023/09/15 02:04:18;;;;;;;4.60;1.83;;;;;;;10.88;88.63;100926.59;4218123;28;22633;-70
2023/09/15 02:06:45;;;;;;;4.10;2.00;;;;;;;10.84;88.66;100922.44;4212251;28;21800;-69
2023/09/15 02:09:14;;;;;;;4.47;2.00;;;;;;;10.79;88.94;100917.44;4196441;28;20312;-69
2023/09/15 02:11:42;;;;;;;4.10;1.90;;;;;;;10.71;88.99;100914.56;4203631;28;20224;-69
2023/09/15 02:14:08;;;;;;;7.73;2.47;;;;;;;10.72;89.12;100913.56;4195913;28;20709;-69
2023/09/15 02:16:35;;;;;;;4.90;1.97;;;;;;;10.75;89.17;100915.97;4205986;28;20220;-70
2023/09/15 02:19:02;;;;;;;4.90;2.03;;;;;;;10.71;89.11;100912.69;4221221;28;20322;-68
2023/09/15 02:21:29;;;;;;;6.33;2.00;;;;;;;10.47;89.71;100921.16;4206186;28;22957;-69
2023/09/15 02:23:56;;;;;;;6.27;2.00;;;;;;;10.41;90.28;100919.81;4205998;28;20308;-66
2023/09/15 02:26:22;;;;;;;6.97;2.30;;;;;;;10.19;91.51;100923.53;4203398;28;22350;-69
2023/09/15 02:28:50;;;;;;;5.20;2.10;;;;;;;10.33;90.93;100919.59;4205017;28;20293;-69
2023/09/15 02:31:18;;;;;;;6.77;2.47;;;;;;;10.29;90.76;100926.28;4205036;28;20237;-68
2023/09/15 02:33:45;;;;;;;4.00;2.20;;;;;;;10.23;90.84;100924.13;4201984;28;21258;-67
2023/09/15 02:36:12;;;;;;;6.30;2.10;;;;;;;10.19;91.14;100923.53;4186626;28;20240;-66
2023/09/15 02:38:38;;;;;;;5.80;2.63;;;;;;;10.22;91.05;100927.81;4222539;28;20230;-68
2023/09/15 02:41:05;;;;;;;6.50;2.40;;;;;;;10.21;91.13;100931.50;4204762;28;20240;-67
2023/09/15 02:43:31;;;;;;;6.70;2.27;;;;;;;10.17;91.24;100939.03;4187262;28;20908;-68
2023/09/15 02:46:03;;;;;;;7.83;2.03;;;;;;;10.21;91.14;100939.63;4197285;28;20394;-69
2023/09/15 02:48:30;;;;;;;6.50;2.40;;;;;;;10.19;90.96;100942.47;4208224;28;20597;-70
2023/09/15 02:50:58;;;;;;;7.53;1.93;;;;;;;10.22;90.82;100941.34;4202739;28;20257;-66
2023/09/15 02:53:25;;;;;;;5.97;2.13;;;;;;;10.22;90.53;100939.47;4210357;28;20237;-69
2023/09/15 02:56:05;;;;;;;6.43;2.07;;;;;;;10.15;90.79;100944.59;4200973;28;20240;-67
2023/09/15 02:58:32;;;;;;;4.10;1.87;;;;;;;10.04;91.07;100949.19;4201226;28;20230;-68
2023/09/15 03:00:59;;;;;;;4.27;2.23;;;;;;;10.12;91.07;100946.69;4202152;28;20232;-66
2023/09/15 03:03:25;;;;;;;7.17;2.67;;;;;;;10.07;91.12;100944.38;4211985;28;21868;-69
2023/09/15 03:06:06;;;;;;;4.13;2.20;;;;;;;10.02;91.12;100943.91;4201327;28;20243;-68
2023/09/15 03:08:33;;;;;;;7.50;2.13;;;;;;;9.99;91.43;100946.88;4200037;28;20239;-68
2023/09/15 03:11:00;;;;;;;8.23;2.33;;;;;;;9.98;91.34;100956.81;4201680;28;20632;-67
2023/09/15 03:13:27;;;;;;;8.73;2.83;;;;;;;9.95;91.28;100957.09;4202876;28;26415;-67
2023/09/15 03:15:53;;;;;;;13.30;2.43;;;;;;;9.95;91.57;100958.94;4196938;28;21077;-67
2023/09/15 03:18:21;;;;;;;4.17;2.00;;;;;;;9.95;91.61;100950.81;4207617;28;20465;-68
2023/09/15 03:20:48;;;;;;;8.50;2.40;;;;;;;9.94;91.15;100960.78;4202831;28;23870;-67
2023/09/15 03:23:15;;;;;;;5.03;2.30;;;;;;;9.94;91.38;100958.09;4204655;28;20294;-66
2023/09/15 03:25:42;;;;;;;13.17;2.43;;;;;;;9.88;91.62;100953.22;4195179;28;20240;-68
2023/09/15 03:28:10;;;;;;;4.77;2.07;;;;;;;9.79;91.87;100968.34;4199198;28;20233;-69
2023/09/15 03:30:37;;;;;;;4.93;1.67;;;;;;;9.78;91.70;100968.47;4201661;28;20243;-67
2023/09/15 03:33:07;;;;;;;7.60;2.17;;;;;;;9.76;92.21;100976.72;4213683;28;20228;-67
2023/09/15 03:35:34;;;;;;;6.43;2.40;;;;;;;9.77;91.75;100970.34;4204913;28;22154;-69
2023/09/15 03:38:00;;;;;;;5.23;2.03;;;;;;;9.75;91.98;100972.31;4212362;28;20889;-67
2023/09/15 03:40:29;;;;;;;6.90;2.33;;;;;;;9.74;92.34;100977.84;4203185;28;22344;-66
2023/09/15 03:42:56;;;;;;;7.10;2.20;;;;;;;9.71;91.95;100972.69;4203627;28;20233;-67
2023/09/15 03:45:23;;;;;;;10.77;2.33;;;;;;;9.68;92.41;100984.63;4207899;28;22311;-67
2023/09/15 03:47:49;;;;;;;8.63;2.20;;;;;;;9.69;92.27;100983.63;4206780;28;23643;-67
2023/09/15 03:50:21;;;;;;;9.60;2.10;;;;;;;9.64;92.18;100975.03;4204533;28;20238;-68
2023/09/15 03:52:48;;;;;;;4.90;2.37;;;;;;;9.70;92.17;100981.78;4195883;28;22688;-67
2023/09/15 03:55:17;;;;;;;8.50;2.27;;;;;;;9.64;92.56;100986.72;4205212;28;21232;-67
2023/09/15 03:57:44;;;;;;;5.57;2.40;;;;;;;9.71;92.31;100995.16;4200900;28;20269;-67
2023/09/15 04:00:15;;;;;;;9.00;2.23;;;;;;;9.70;92.25;100989.91;4215260;28;20608;-69
2023/09/15 04:02:43;;;;;;;5.70;2.50;;;;;;;9.66;92.26;100997.41;4216809;28;20300;-66
2023/09/15 04:05:10;;;;;;;5.97;2.27;;;;;;;9.59;92.67;101002.44;4207691;28;21171;-69
2023/09/15 04:07:38;;;;;;;10.20;2.10;;;;;;;9.54;92.74;101003.84;4210585;28;20241;-67
2023/09/15 04:10:05;;;;;;;9.20;2.87;;;;;;;9.54;92.90;100993.03;4213562;28;20464;-67
2023/09/15 04:12:34;;;;;;;3.67;2.00;;;;;;;9.55;92.92;100997.44;4210523;28;20280;-69
2023/09/15 04:15:00;;;;;;;3.83;2.10;;;;;;;9.49;92.93;100996.94;4203259;28;21208;-68
2023/09/15 04:17:27;;;;;;;6.93;2.20;;;;;;;9.57;92.83;101004.44;4209903;28;20227;-69
2023/09/15 04:19:54;;;;;;;7.20;2.30;;;;;;;9.57;92.74;101000.88;4209058;28;20239;-66
2023/09/15 04:22:21;;;;;;;8.53;2.90;;;;;;;9.61;92.67;100995.06;4207476;28;20307;-66
2023/09/15 04:24:47;;;;;;;4.07;2.37;;;;;;;9.52;92.47;101007.53;4209177;28;20243;-69
2023/09/15 04:27:14;;;;;;;4.53;1.97;;;;;;;9.60;92.75;101003.31;4207584;28;20402;-68
2023/09/15 04:29:55;;;;;;;6.10;2.53;;;;;;;9.62;92.70;101009.47;4225040;28;20314;-69
2023/09/15 04:32:22;;;;;;;8.13;2.37;;;;;;;9.62;92.25;101014.88;4215468;28;20596;-69
2023/09/15 04:34:53;;;;;;;10.77;2.90;;;;;;;9.55;92.52;101014.50;4225067;28;20284;-66
2023/09/15 04:37:20;;;;;;;8.70;2.63;;;;;;;9.52;92.68;101010.22;4224826;28;20475;-68
2023/09/15 04:39:51;;;;;;;5.97;2.33;;;;;;;9.43;93.42;101005.56;4223968;28;20427;-68
2023/09/15 04:42:18;;;;;;;11.77;2.90;;;;;;;9.44;93.48;101014.56;4212330;28;20237;-69
2023/09/15 04:44:44;;;;;;;8.57;2.30;;;;;;;9.63;92.75;101013.91;4210569;28;25183;-68
2023/09/15 04:47:30;;;;;;;6.47;2.57;;;;;;;9.73;92.38;101017.53;4209764;28;21143;-68
2023/09/15 04:49:56;;;;;;;11.30;2.77;;;;;;;9.62;92.53;101013.03;4205364;28;20241;-67
2023/09/15 04:52:23;;;;;;;5.80;2.70;;;;;;;9.57;93.08;101012.56;4205302;28;20280;-67
2023/09/15 04:54:50;;;;;;;8.87;2.93;;;;;;;9.55;93.46;101010.97;4196877;28;20331;-69
2023/09/15 04:57:18;;;;;;;7.47;3.20;;;;;;;9.72;92.99;101018.50;4195523;28;20240;-69
2023/09/15 04:59:46;;;;;;;5.07;2.90;;;;;;;9.71;92.58;101019.50;4209557;28;20623;-67
2023/09/15 05:02:13;;;;;;;11.37;2.60;;;;;;;9.70;93.15;101025.03;4208461;28;21145;-68
2023/09/15 05:04:40;;;;;;;7.43;2.90;;;;;;;9.70;93.14;101033.16;4217217;28;22104;-68
2023/09/15 05:07:07;;;;;;;11.03;3.03;;;;;;;9.76;92.91;101029.94;4217003;28;20235;-69
2023/09/15 05:09:34;;;;;;;11.47;3.47;;;;;;;9.78;93.12;101036.94;4191401;28;20342;-67
2023/09/15 05:12:01;;;;;;;15.83;3.07;;;;;;;9.87;92.85;101040.72;4217300;28;20450;-68
2023/09/15 05:14:27;;;;;;;9.03;3.63;;;;;;;9.99;92.39;101044.25;4208722;28;22115;-66
2023/09/15 05:16:54;;;;;;;11.10;2.93;;;;;;;10.06;92.50;101040.03;4222052;28;21658;-68
2023/09/15 05:19:21;;;;;;;10.00;2.90;;;;;;;10.11;92.14;101040.50;4202102;28;20234;-69
2023/09/15 05:21:48;;;;;;;10.97;3.50;;;;;;;10.20;91.72;101041.56;4215226;28;20243;-70
2023/09/15 05:24:14;;;;;;;13.30;2.80;;;;;;;10.21;91.57;101047.84;4205588;28;20878;-67
2023/09/15 05:26:41;;;;;;;9.33;2.83;;;;;;;10.30;91.94;101047.06;4203748;28;20236;-67
2023/09/15 05:29:08;;;;;;;7.70;2.87;;;;;;;10.40;91.55;101056.13;4196463;28;21088;-68
2023/09/15 05:31:35;;;;;;;13.07;3.23;;;;;;;10.56;90.66;101053.00;4212052;28;20240;-70
2023/09/15 05:34:02;;;;;;;6.20;2.90;;;;;;;10.73;89.79;101056.06;4213577;28;20379;-69
2023/09/15 05:36:29;;;;;;;11.30;3.10;;;;;;;10.74;90.04;101065.91;4200514;28;20621;-69
2023/09/15 05:38:56;;;;;;;10.80;2.90;;;;;;;10.88;89.18;101064.72;4224106;28;20229;-68
2023/09/15 05:41:23;;;;;;;10.20;2.93;;;;;;;10.87;88.80;101063.00;4211403;28;20233;-67
2023/09/15 05:43:50;;;;;;;5.97;2.40;;;;;;;10.89;88.72;101072.69;4197810;28;20897;-68
2023/09/15 05:46:18;;;;;;;11.13;2.70;;;;;;;11.00;88.53;101065.50;4215294;28;20239;-69
2023/09/15 05:48:45;;;;;;;12.43;3.10;;;;;;;11.07;88.61;101077.50;4211332;28;22268;-69
2023/09/15 05:51:12;;;;;;;6.63;2.60;;;;;;;11.16;87.87;101065.00;4194885;28;20392;-68
2023/09/15 05:53:39;;;;;;;7.43;2.10;;;;;;;11.26;87.50;101068.63;4203285;28;20693;-68
2023/09/15 05:56:05;;;;;;;11.30;2.63;;;;;;;11.43;86.72;101067.09;4205531;28;22146;-69
2023/09/15 05:58:32;;;;;;;7.03;2.10;;;;;;;11.51;86.16;101063.72;4205552;28;21558;-70
2023/09/15 06:00:59;;;;;;;4.53;1.97;;;;;;;11.51;86.04;101069.13;4201853;28;20308;-68
2023/09/15 06:03:25;;;;;;;7.77;2.37;;;;;;;11.54;85.72;101072.44;4214815;28;21104;-67
2023/09/15 06:05:52;;;;;;;7.77;2.20;;;;;;;11.74;85.46;101075.19;4213802;28;20255;-68
2023/09/15 06:08:19;;;;;;;10.60;2.00;;;;;;;11.84;84.63;101075.19;4200226;28;20240;-69
2023/09/15 06:10:48;;;;;;;7.33;1.80;;;;;;;11.85;83.83;101074.19;4201808;28;20239;-70
2023/09/15 06:13:15;;;;;;;4.57;1.63;;;;;;;11.99;83.56;101072.97;4201180;28;20239;-69
2023/09/15 06:15:44;;;;;;;5.43;2.30;;;;;;;12.08;83.00;101072.13;4204753;28;20500;-69
2023/09/15 06:18:10;;;;;;;3.37;1.70;;;;;;;12.12;82.28;101073.56;4203283;28;25505;-70
2023/09/15 06:20:38;;;;;;;6.83;2.10;;;;;;;12.18;81.11;101078.41;4214245;28;20380;-70
2023/09/15 06:23:04;;;;;;;5.27;1.83;;;;;;;12.34;80.46;101079.69;4207602;28;20340;-73
2023/09/15 06:25:32;;;;;;;6.23;1.73;;;;;;;12.38;80.21;101078.44;4204515;28;20301;-70
2023/09/15 06:28:00;;;;;;;7.97;1.50;;;;;;;12.51;79.64;101073.56;4203578;28;20378;-67
2023/09/15 06:30:45;;;;;;;9.70;2.33;;;;;;;12.55;79.41;101076.84;4208524;28;22031;-69
2023/09/15 06:33:12;;;;;;;7.30;1.80;;;;;;;12.64;78.69;101080.53;4199034;28;21458;-69
2023/09/15 06:35:39;;;;;;;7.90;1.87;;;;;;;12.64;78.66;101072.38;4209769;28;20231;-71
2023/09/15 06:38:06;;;;;;;8.03;2.03;;;;;;;12.76;78.27;101083.94;4202864;28;20598;-70
2023/09/15 06:40:35;;;;;;;7.10;2.13;;;;;;;12.76;78.82;101084.81;4214848;28;22498;-67
2023/09/15 06:43:07;;;;;;;5.93;1.93;;;;;;;12.94;78.13;101082.19;4180148;28;20906;-71
2023/09/15 06:45:34;;;;;;;7.87;2.07;;;;;;;13.13;77.36;101086.72;4202654;28;20248;-70
2023/09/15 06:48:02;;;;;;;12.07;2.20;;;;;;;13.19;77.16;101084.41;4206033;28;20266;-67
2023/09/15 06:50:28;;;;;;;7.60;2.20;;;;;;;13.26;77.40;101082.81;4217002;28;20643;-71
2023/09/15 06:52:55;;;;;;;7.03;1.77;;;;;;;13.39;76.75;101079.78;4211179;28;20344;-68
2023/09/15 06:55:22;;;;;;;13.67;2.57;;;;;;;13.59;76.20;101086.00;4202217;28;20311;-68
2023/09/15 06:57:50;;;;;;;6.03;1.80;;;;;;;13.75;75.00;101085.31;4206392;28;20240;-69
2023/09/15 07:00:18;;;;;;;7.87;1.90;;;;;;;13.82;74.35;101091.03;4270239;28;20245;-67
2023/09/15 07:02:45;;;;;;;6.17;1.73;;;;;;;14.16;72.91;101082.16;4227807;28;20247;-67
2023/09/15 07:05:11;;;;;;;11.33;2.40;;;;;;;14.38;70.91;101089.03;4274419;28;20245;-68
2023/09/15 07:07:41;;;;;;;4.70;1.77;;;;;;;14.46;70.62;101091.84;4266970;28;20664;-68
2023/09/15 07:10:08;;;;;;;5.20;1.90;;;;;;;16.05;66.17;101093.41;4266205;28;20239;-69
2023/09/15 07:12:36;;;;;;;9.17;2.07;;;;;;;18.04;59.29;101092.06;4285357;28;20256;-71
2023/09/15 07:15:05;;;;;;;11.40;2.03;;;;;;;19.36;54.63;101090.06;4248120;28;20287;-72
2023/09/15 07:17:32;;;;;;;11.77;1.80;;;;;;;21.10;49.60;101093.84;4258260;28;21263;-67
2023/09/15 07:19:59;;;;;;;3.70;1.77;;;;;;;21.46;48.00;101095.53;4244501;28;21193;-70
2023/09/15 07:22:27;;;;;;;8.53;2.10;;;;;;;22.99;43.99;101092.53;4273390;28;20574;-72
2023/09/15 07:24:54;;;;;;;9.60;1.98;;;;;;;23.50;42.47;101086.28;4237827;28;21598;-70
2023/09/15 07:27:23;;;;;;;5.43;2.00;;;;;;;25.05;39.29;101088.09;4264307;28;20619;-68
2023/09/15 07:29:50;;;;;;;7.03;2.38;;;;;;;24.76;39.03;101098.81;4243102;28;25196;-70
2023/09/15 07:32:21;;;;;;;5.00;1.88;;;;;;;24.33;40.19;101097.59;4238400;28;20411;-68
2023/09/15 07:34:49;;;;;;;13.40;2.20;;;;;;;27.29;35.84;101086.47;4228831;28;21146;-67
2023/09/15 07:37:18;;;;;;;5.72;1.90;;;;;;;28.58;33.70;101092.69;4245529;28;22013;-69
2023/09/15 07:39:45;;;;;;;8.75;2.22;;;;;;;29.25;32.14;101090.13;4225644;28;20334;-70
2023/09/15 07:42:12;;;;;;;4.32;1.50;;;;;;;28.67;32.10;101092.25;4215055;28;20232;-69
2023/09/15 07:44:42;;;;;;;5.35;1.50;;;;;;;27.60;33.38;101092.75;4345569;28;20240;-71
2023/09/15 07:47:24;;;;;;;8.25;2.17;;;;;;;28.94;31.57;101093.28;4237307;28;20234;-69
2023/09/15 07:49:52;;;;;;;7.63;2.15;;;;;;;28.37;32.68;101097.03;4231932;28;20235;-68
2023/09/15 07:52:24;;;;;;;6.15;1.98;;;;;;;26.47;35.29;101088.06;4380997;28;22783;-69
2023/09/15 07:54:53;;;;;;;4.10;1.80;;;;;;;27.71;33.68;101085.44;4437687;28;21838;-70
2023/09/15 07:57:20;;;;;;;5.70;2.17;;;;;;;28.45;32.25;101093.00;4213228;28;20704;-71
2023/09/15 07:59:46;;;;;;;9.93;1.73;;;;;;;28.41;32.71;101094.59;4271243;28;20411;-56
2023/09/15 08:02:18;;;;;;;7.50;2.10;;;;;;;27.51;33.30;101095.91;4211446;28;22295;-50
2023/09/15 08:04:45;;;;;;;11.32;2.17;;;;;;;26.82;34.58;101088.16;4270180;28;20226;-60
2023/09/15 08:07:11;;;;;;;7.45;1.58;;;;;;;28.88;32.18;101099.06;4209470;28;22784;-69
2023/09/15 08:09:38;;;;;;;14.50;3.00;;;;;;;29.94;30.67;101087.97;4247915;28;20540;-69
2023/09/15 08:12:06;;;;;;;21.98;3.38;;;;;;;29.96;30.23;101089.41;4242775;28;20326;-71
2023/09/15 08:14:32;;;;;;;9.60;2.03;;;;;;;28.75;31.37;101089.91;4225651;28;20667;-72
2023/09/15 08:16:59;;;;;;;6.17;1.87;;;;;;;27.45;33.53;101091.31;4263182;28;20240;-70
2023/09/15 08:19:27;;;;;;;6.05;1.60;;;;;;;27.13;34.02;101091.69;4220166;28;20408;-72
2023/09/15 08:21:54;;;;;;;6.97;1.70;;;;;;;25.12;36.51;101097.19;4215053;28;20231;-74
2023/09/15 08:24:21;;;;;;;6.53;1.70;;;;;;;22.97;41.05;101098.28;4235541;28;22325;-74
2023/09/15 08:26:48;;;;;;;6.57;1.70;;;;;;;21.57;45.23;101098.75;4204659;28;21986;-71
2023/09/15 08:29:14;;;;;;;6.57;1.70;;;;;;;21.56;45.60;101094.31;4202665;28;20241;-71
2023/09/15 08:31:41;;;;;;;10.77;1.50;;;;;;;20.63;47.41;101098.09;4220240;28;20320;-74
2023/09/15 08:34:08;;;;;;;13.23;1.87;;;;;;;20.04;48.77;101089.91;4214930;28;20240;-69
2023/09/15 08:36:34;;;;;;;5.50;1.97;;;;;;;19.94;49.96;101094.84;4307064;28;20241;-70
2023/09/15 08:39:02;;;;;;;8.13;1.77;;;;;;;20.21;49.11;101089.66;4258188;28;20244;-70
2023/09/15 08:41:39;;;;;;;5.83;1.87;;;;;;;20.41;48.35;101095.34;4224022;28;20303;-69
2023/09/15 08:44:09;;;;;;;6.27;1.90;;;;;;;20.18;48.83;101085.41;4239101;28;20228;-67
2023/09/15 08:46:39;;;;;;;3.07;1.60;;;;;;;19.92;48.58;101083.22;4268071;28;20230;-69
2023/09/15 08:49:08;;;;;;;5.53;1.43;;;;;;;19.77;49.63;101089.56;4216587;28;22672;-69
2023/09/15 08:51:39;;;;;;;6.10;1.60;;;;;;;20.00;49.78;101087.72;4212204;28;20248;-70
2023/09/15 08:54:06;;;;;;;8.27;1.67;;;;;;;20.37;48.37;101086.66;4219018;28;20901;-70
2023/09/15 08:56:33;;;;;;;9.70;1.67;;;;;;;20.13;49.25;101089.78;4220300;28;21264;-68
2023/09/15 08:59:01;;;;;;;9.20;1.67;;;;;;;19.54;50.33;101086.09;4224109;28;21036;-75
2023/09/15 09:01:27;;;;;;;3.93;1.47;;;;;;;19.78;49.25;101085.78;4204550;28;21117;-71
2023/09/15 09:03:54;;;;;;;6.03;1.60;;;;;;;19.52;50.39;101083.53;4225914;28;20290;-72
2023/09/15 09:06:23;;;;;;;4.73;1.67;;;;;;;19.34;49.91;101075.66;4230520;28;20453;-68
2023/09/15 09:08:50;;;;;;;4.93;1.30;;;;;;;19.66;49.74;101084.53;4204114;28;20237;-72
2023/09/15 09:11:18;;;;;;;3.67;1.47;;;;;;;19.35;50.32;101082.88;4211261;28;20915;-74
2023/09/15 09:13:52;;;;;;;3.20;1.60;;;;;;;19.16;50.94;101084.28;4211118;28;20247;-68
2023/09/15 09:16:21;;;;;;;6.70;1.80;;;;;;;19.56;50.78;101079.34;4212950;28;20861;-71
2023/09/15 09:18:58;;;;;;;3.73;1.43;;;;;;;19.49;50.40;101086.66;4208069;28;20237;-72
2023/09/15 09:21:27;;;;;;;4.93;1.47;;;;;;;19.28;50.44;101091.03;4235795;28;20244;-74
2023/09/15 09:23:55;;;;;;;7.67;1.30;;;;;;;19.32;50.27;101075.88;4230080;28;25491;-72
2023/09/15 09:26:22;;;;;;;12.77;2.00;;;;;;;19.75;50.82;101088.06;4193504;28;20239;-72
2023/09/15 09:28:49;;;;;;;4.27;1.60;;;;;;;19.76;48.69;101092.47;4221775;28;20304;-74
2023/09/15 09:31:17;;;;;;;4.53;1.43;;;;;;;20.12;47.59;101091.69;4225843;28;21970;-72
2023/09/15 09:33:44;;;;;;;3.77;1.30;;;;;;;19.48;48.23;101084.94;4238431;28;20254;-67
2023/09/15 09:36:13;;;;;;;4.93;1.50;;;;;;;19.48;49.02;101088.56;4224934;28;20856;-69
2023/09/15 09:38:46;;;;;;;3.57;1.63;;;;;;;19.58;48.19;101080.03;4217311;28;20299;-70
2023/09/15 09:41:15;;;;;;;6.30;1.50;;;;;;;18.92;49.81;101085.41;4218492;28;20235;-72
2023/09/15 09:43:47;;;;;;;5.43;1.30;;;;;;;19.25;48.69;101080.41;4237079;28;20350;-73
2023/09/15 09:46:17;;;;;;;8.63;1.37;;;;;;;19.34;48.62;101083.91;4203805;28;20243;-71
2023/09/15 09:48:44;;;;;;;4.07;1.50;;;;;;;19.51;48.33;101075.47;4224666;28;20234;-72
2023/09/15 09:51:15;;;;;;;3.27;1.53;;;;;;;19.20;49.48;101071.91;4242631;28;20244;-73
2023/09/15 09:53:44;;;;;;;3.90;1.37;;;;;;;19.38;49.81;101082.50;4215580;28;20342;-71
2023/09/15 09:56:11;;;;;;;2.93;1.30;;;;;;;19.67;48.32;101074.44;4216204;28;20231;-70
2023/09/15 09:58:40;;;;;;;5.70;1.53;;;;;;;19.39;48.58;101080.59;4202522;28;20284;-45
2023/09/15 10:01:09;;;;;;;3.23;1.50;;;;;;;18.99;49.88;101092.72;4215610;28;20448;-47
2023/09/15 10:03:36;;;;;;;4.70;1.80;;;;;;;19.26;48.41;101084.88;4205465;28;20673;-68
2023/09/15 10:06:06;;;;;;;4.20;1.40;;;;;;;19.10;48.67;101080.41;4204364;28;20288;-66
2023/09/15 10:08:33;;;;;;;5.57;1.60;;;;;;;19.09;48.66;101088.81;4227992;28;20858;-67
2023/09/15 10:11:00;;;;;;;3.50;1.20;;;;;;;18.98;49.09;101084.66;4218265;28;21396;-65
2023/09/15 10:13:29;;;;;;;2.80;1.50;;;;;;;18.87;48.96;101085.91;4201586;28;20272;-67
2023/09/15 10:15:56;;;;;;;7.40;1.83;;;;;;;19.08;50.29;101085.22;4191832;28;21355;-66
2023/09/15 10:18:24;;;;;;;8.50;1.80;;;;;;;19.22;48.48;101086.25;4201522;28;20239;-65
2023/09/15 10:20:55;;;;;;;3.70;1.30;;;;;;;19.26;49.41;101082.13;4216270;28;20231;-68
2023/09/15 10:23:23;;;;;;;5.13;1.57;;;;;;;19.23;49.72;101077.00;4204572;28;20335;-69
2023/09/15 10:25:51;;;;;;;7.50;1.77;;;;;;;19.10;47.78;101074.06;4214912;28;20249;-67
2023/09/15 10:28:21;;;;;;;4.07;1.40;;;;;;;19.15;47.72;101086.19;4222711;28;20570;-67
2023/09/15 10:31:07;;;;;;;5.33;1.70;;;;;;;19.04;47.28;101074.81;4222153;28;20601;-67
2023/09/15 10:33:40;;;;;;;3.90;1.73;;;;;;;19.22;47.85;101080.78;4201706;28;25438;-67
2023/09/15 10:36:12;;;;;;;5.43;1.43;;;;;;;19.12;47.22;101075.56;4216455;28;20623;-67
2023/09/15 10:38:41;;;;;;;7.30;1.63;;;;;;;19.36;47.19;101076.34;4226456;28;21376;-68
2023/09/15 10:41:10;;;;;;;2.47;1.50;;;;;;;19.18;47.71;101073.13;4211044;28;20296;-66
2023/09/15 10:43:49;;;;;;;3.97;1.23;;;;;;;19.11;47.05;101081.25;4256791;28;20331;-68
2023/09/15 10:46:17;;;;;;;5.70;1.47;;;;;;;19.36;47.45;101078.25;4237496;28;20234;-65
2023/09/15 10:48:46;;;;;;;4.90;1.63;;;;;;;19.72;46.50;101072.78;4221102;28;21610;-66
2023/09/15 10:51:22;;;;;;;4.93;1.40;;;;;;;19.70;46.15;101076.78;4213883;28;22257;-67
2023/09/15 10:53:56;;;;;;;5.43;1.60;;;;;;;19.49;46.68;101075.66;4216946;28;20321;-65
2023/09/15 10:56:24;;;;;;;4.27;1.60;;;;;;;19.74;46.32;101072.63;4209497;28;22015;-69
2023/09/15 10:58:50;;;;;;;12.43;1.77;;;;;;;19.76;46.92;101074.13;4219801;28;20403;-53
2023/09/15 11:01:19;;;;;;;2.77;1.43;;;;;;;20.18;45.27;101070.78;4224268;28;20528;-51
2023/09/15 11:03:47;;;;;;;3.83;1.70;;;;;;;20.13;45.24;101078.78;4210143;28;20240;-46
2023/09/15 11:06:15;;;;;;;7.73;1.70;;;;;;;20.03;46.55;101077.19;4203348;28;20236;-49
2023/09/15 11:08:42;;;;;;;5.50;1.77;;;;;;;20.04;44.71;101069.81;4222941;28;20706;-46
2023/09/15 11:11:10;;;;;;;4.70;1.50;;;;;;;20.05;46.87;101068.78;4200610;28;20304;-46
2023/09/15 11:13:39;;;;;;;5.87;1.43;;;;;;;20.34;44.75;101065.03;4203751;28;20306;-46
2023/09/15 11:16:07;;;;;;;34.77;8.10;;;;;;;20.65;44.49;101063.84;4207329;28;20249;-46
2023/09/15 11:18:36;;;;;;;30.17;5.30;;;;;;;20.57;44.88;101069.47;4224793;28;20233;-46
2023/09/15 11:21:05;;;;;;;13.13;2.90;;;;;;;20.65;44.46;101072.09;4223277;28;22309;-45
2023/09/15 11:23:32;;;;;;;19.57;4.63;;;;;;;20.29;44.66;101070.28;4208729;28;20538;-46
2023/09/15 11:26:05;;;;;;;9.47;2.17;;;;;;;20.56;43.34;101063.13;4209848;28;20650;-46
2023/09/15 11:28:42;;;;;;;4.57;1.57;;;;;;;20.41;43.69;101056.88;4206082;28;20788;-49
2023/09/15 11:31:10;;;;;;;5.43;1.63;;;;;;;20.33;44.06;101055.09;4200503;28;20231;-43
2023/09/15 11:33:42;;;;;;;3.63;1.60;;;;;;;20.15;43.76;101058.28;4207624;28;20427;-68